TDPD/DOM METAR and TAF weather

Enter ICAO airport designator
Station Type Date Time Source
TDPD METAR 2020/09/26 22:00 UTC NOAA

TDPD 262200Z 09003KT 9999 BKN015 28/25 Q1012


Station Type Date Time Source
TDPD Decoded METAR 2020/09/26 22:00 UTC NOAA

Melville Hall Airport, Dominica (TDPD) 15-32N 061-18W 14M
Sep 26, 2020 - 06:00 PM EDT / 2020.09.26 2200 UTC
Wind: from the E (090 degrees) at 3 MPH (3 KT):0
Visibility: greater than 7 mile(s):0
Sky conditions: mostly cloudy
Temperature: 82 F (28 C)
Dew Point: 77 F (25 C)
Relative Humidity: 83%
Pressure (altimeter): 29.88 in. Hg (1012 hPa)
ob: TDPD 262200Z 09003KT 9999 BKN015 28/25 Q1012
cycle: 22

Station Type Date Time Source
TDPD TAF 2020/09/26 18:21 UTC NOAA

TAF TDPD 261700Z 2618/2718 07008KT 9999 SCT020 PROB30
TEMPO 2618/2622 SHRA BKN014 PROB30
TEMPO 2712/2718 SHRA BKN014 FEW015CB

Example: see airport list